Time;durP1;ratioP1;P1;durP2;ratioP2;P2;SDS_P1;SDS_P2;PMS_P1;PMS_P2;Temp;Humidity;BMP_temperature;BMP_pressure;BME280_temperature;BME280_humidity;BME280_pressure;Samples;Min_cycle;Max_cycle;Signal;HPM_P1;HPM_P2
2022/11/04 00:01:22;;;;;;;4.07;3.10;;;12.70;56.90;;;11.63;57.67;100143.44;12188561;19;20051;-87
2022/11/04 00:05:23;;;;;;;5.18;3.03;;;12.70;56.90;;;11.55;57.59;100130.06;12184118;19;20696;-86
2022/11/04 00:09:29;;;;;;;4.07;2.70;;;12.60;56.90;;;11.50;57.55;100138.22;12182696;19;20014;-87
2022/11/04 00:13:30;;;;;;;5.47;2.72;;;12.60;56.90;;;11.52;57.79;100141.56;12181339;19;20048;-87
2022/11/04 00:17:31;;;;;;;3.20;2.40;;;12.50;56.80;;;11.48;57.52;100142.75;12181097;19;20037;-87
2022/11/04 00:30:16;;;;;;;2.80;2.28;;;12.40;56.70;;;11.19;57.68;100113.34;12198622;19;20554;-87
2022/11/04 00:34:18;;;;;;;3.40;2.35;;;12.40;56.60;;;10.95;57.58;100068.78;12192039;19;20041;-87
2022/11/04 00:38:20;;;;;;;2.53;2.28;;;12.30;56.60;;;11.26;57.53;100125.03;12189208;19;20904;-87
2022/11/04 00:42:21;;;;;;;5.70;2.97;;;12.30;56.60;;;11.14;57.55;100112.81;12193670;19;20022;-86
2022/11/04 00:46:23;;;;;;;3.72;2.92;;;12.20;56.70;;;11.15;57.73;100114.47;12185941;19;20117;-87
2022/11/04 00:50:25;;;;;;;5.15;3.38;;;12.20;56.70;;;11.09;57.71;100102.66;12189531;19;20028;-87
2022/11/04 00:54:26;;;;;;;4.15;3.20;;;12.10;56.80;;;11.07;57.83;100108.00;12193479;19;20017;-87
2022/11/04 00:58:28;;;;;;;4.07;2.63;;;12.10;56.90;;;10.94;57.74;100085.44;12190346;19;20386;-87
2022/11/04 01:02:30;;;;;;;3.35;2.95;;;12.00;56.70;;;10.73;57.62;100061.56;12192039;19;20847;-87
2022/11/04 01:06:31;;;;;;;3.97;2.63;;;12.00;56.70;;;10.86;57.62;100093.75;12193378;19;20028;-87
2022/11/04 01:10:35;;;;;;;3.72;3.05;;;12.00;56.80;;;10.78;57.82;100086.44;12193420;19;20019;-87
2022/11/04 01:14:37;;;;;;;3.63;3.30;;;11.90;56.80;;;10.89;57.89;100098.78;12193512;19;20457;-87
2022/11/04 01:18:39;;;;;;;7.22;3.05;;;11.90;56.90;;;10.77;57.76;100081.31;12193282;19;20011;-87
2022/11/04 01:22:41;;;;;;;3.15;2.85;;;11.90;56.70;;;10.46;57.75;100025.91;12195459;19;20021;-86
2022/11/04 01:26:43;;;;;;;4.13;3.28;;;11.90;56.80;;;10.77;57.79;100076.06;12183354;19;20017;-87
2022/11/04 01:30:44;;;;;;;5.90;3.78;;;11.80;56.80;;;10.66;57.95;100060.28;12189471;19;20018;-87
2022/11/04 01:34:46;;;;;;;5.57;3.00;;;11.80;56.80;;;10.67;57.66;100060.19;12191201;19;21156;-86
2022/11/04 01:38:48;;;;;;;5.13;3.35;;;11.60;56.90;;;10.69;57.71;100065.31;12189987;19;20025;-86
2022/11/04 01:42:49;;;;;;;5.07;4.10;;;11.70;57.10;;;10.63;57.92;100062.16;12193726;19;20044;-87
2022/11/04 01:46:53;;;;;;;3.90;2.97;;;11.70;57.30;;;10.60;57.98;100069.38;12189403;19;20086;-87
2022/11/04 01:50:55;;;;;;;5.43;3.35;;;11.70;57.40;;;10.65;57.93;100066.47;12192639;19;20070;-86
2022/11/04 01:55:01;;;;;;;3.95;3.10;;;11.50;57.50;;;10.61;57.77;100052.75;12192182;19;20103;-88
2022/11/04 01:59:11;;;;;;;3.88;3.15;;;11.80;57.90;;;10.61;58.02;100052.75;12198482;19;20018;-87
2022/11/04 02:03:27;;;;;;;4.72;3.50;;;11.70;57.90;;;10.68;58.15;100061.88;12193085;19;20014;-87
2022/11/04 02:07:30;;;;;;;4.38;3.00;;;11.50;57.70;;;10.71;57.93;100071.28;12187901;19;20019;-87
2022/11/04 02:16:03;;;;;;;5.88;2.95;;;11.80;57.90;;;10.64;58.27;100044.75;12190639;19;20019;-87
2022/11/04 02:20:24;;;;;;;4.22;3.05;;;11.80;57.90;;;10.76;58.18;100049.13;12189578;19;20014;-87
2022/11/04 02:25:25;;;;;;;4.45;3.15;;;11.80;57.80;;;10.71;58.17;100042.53;12190114;19;20025;-87
2022/11/04 02:29:38;;;;;;;4.68;2.95;;;11.80;57.90;;;10.73;58.18;100049.34;12190288;19;20019;-87
2022/11/04 02:33:59;;;;;;;6.88;3.08;;;11.80;57.80;;;10.73;58.26;100053.72;12187926;19;20024;-87
2022/11/04 02:38:30;;;;;;;4.82;3.45;;;11.80;57.80;;;10.73;58.17;100046.72;12186817;19;20676;-87
2022/11/04 02:42:42;;;;;;;4.45;3.28;;;11.80;57.70;;;10.73;58.28;100048.50;12186012;19;20039;-86
2022/11/04 02:47:07;;;;;;;3.95;3.05;;;11.80;57.70;;;10.60;58.19;100020.59;12186810;19;20018;-87
2022/11/04 02:51:30;;;;;;;5.30;3.00;;;11.80;57.70;;;10.62;58.28;100037.00;12187197;19;20394;-87
2022/11/04 02:55:40;;;;;;;4.97;3.45;;;11.70;57.70;;;10.60;58.11;100025.81;12186473;19;20318;-87
2022/11/04 02:59:50;;;;;;;5.05;3.00;;;11.70;57.60;;;10.53;58.61;100011.50;12182351;19;20019;-86
2022/11/04 03:04:02;;;;;;;4.65;3.05;;;11.70;57.60;;;10.56;58.40;100018.31;12184997;19;20555;-87
2022/11/04 03:08:14;;;;;;;4.40;3.28;;;11.70;57.70;;;10.55;58.30;100014.84;12184669;19;20035;-87
2022/11/04 03:12:21;;;;;;;3.65;3.22;;;11.70;57.80;;;10.52;58.49;100002.00;12185704;19;20018;-86
2022/11/04 03:16:39;;;;;;;7.25;3.33;;;11.70;57.90;;;10.54;58.61;100002.72;12178192;19;20774;-87
2022/11/04 03:20:44;;;;;;;5.65;3.50;;;11.60;58.00;;;10.51;58.47;100000.34;12183816;19;20078;-87
2022/11/04 03:24:48;;;;;;;5.47;3.47;;;11.60;58.00;;;10.37;58.60;99975.16;12188379;19;20018;-87
2022/11/04 03:29:14;;;;;;;3.22;2.92;;;11.70;58.20;;;10.60;58.60;100017.16;12190364;19;20010;-87
2022/11/04 03:33:33;;;;;;;4.35;2.97;;;11.70;58.30;;;10.57;58.62;100012.97;12185688;19;20310;-87
2022/11/04 03:37:34;;;;;;;5.00;3.58;;;11.70;58.30;;;10.56;58.63;100005.25;12184992;19;21060;-87
2022/11/04 03:41:45;;;;;;;5.65;3.75;;;11.70;58.30;;;10.50;58.76;100000.41;12185498;19;20019;-87
2022/11/04 03:45:47;;;;;;;5.30;3.05;;;11.70;58.30;;;10.57;58.80;100007.75;12186861;19;20023;-87
2022/11/04 03:49:54;;;;;;;6.45;3.60;;;11.70;58.20;;;10.54;58.53;100026.22;12190435;19;20030;-86
2022/11/04 03:53:57;;;;;;;6.47;3.92;;;11.70;58.20;;;10.27;58.78;99978.44;12185621;19;20011;-86
2022/11/04 03:58:14;;;;;;;6.47;3.95;;;11.70;58.30;;;10.61;58.67;100055.38;12183863;19;20025;-86
2022/11/04 04:02:44;;;;;;;4.93;3.95;;;11.70;58.40;;;10.58;59.19;100053.78;12173915;19;20021;-86
2022/11/04 04:06:49;;;;;;;5.47;3.58;;;11.70;58.30;;;10.68;58.91;100045.38;12176750;19;20043;-86
2022/11/04 04:11:14;;;;;;;5.25;3.80;;;11.80;58.50;;;10.60;58.80;100033.66;12187330;19;20015;-86
2022/11/04 04:15:26;;;;;;;6.93;3.50;;;11.80;58.50;;;10.73;58.90;100046.72;12190074;19;20070;-87
2022/11/04 04:19:29;;;;;;;4.90;3.67;;;11.80;58.40;;;10.70;58.92;100030.44;12186216;19;20019;-87
2022/11/04 04:27:57;;;;;;;5.40;3.53;;;11.80;58.30;;;10.75;58.82;100036.19;12180985;19;20018;-87
2022/11/04 04:32:01;;;;;;;5.28;3.50;;;11.90;58.30;;;10.72;58.85;100025.94;12177844;19;20336;-87
2022/11/04 04:36:05;;;;;;;5.40;3.85;;;11.90;58.40;;;10.73;58.84;100031.06;12179677;19;20066;-86
2022/11/04 04:48:53;;;;;;;3.85;3.03;;;11.90;58.10;;;10.66;59.01;100021.13;12177523;19;19923;-87
2022/11/04 04:52:58;;;;;;;5.90;3.42;;;11.80;58.10;;;10.71;58.88;100034.72;12170493;19;20042;-88
2022/11/04 04:56:59;;;;;;;3.75;3.05;;;11.80;58.20;;;10.64;58.95;100026.47;12169727;19;20018;-86
2022/11/04 05:01:03;;;;;;;5.40;3.60;;;11.90;58.60;;;10.74;58.92;100031.88;12150899;19;20023;-86
2022/11/04 05:05:06;;;;;;;4.45;3.25;;;11.80;58.40;;;10.65;59.10;100011.63;12152963;19;20050;-86
2022/11/04 05:09:07;;;;;;;4.97;3.33;;;11.80;58.30;;;10.71;59.01;100025.09;12162422;19;20026;-87
2022/11/04 05:13:28;;;;;;;5.60;3.75;;;11.80;58.30;;;10.72;59.05;100028.53;12166011;19;20792;-87
2022/11/04 05:17:30;;;;;;;3.88;3.40;;;11.60;58.20;;;10.73;58.71;100045.91;12181917;19;20472;-86
2022/11/04 05:21:31;;;;;;;4.85;3.38;;;11.80;58.40;;;10.69;59.32;100031.34;12173738;19;20889;-86
2022/11/04 05:25:33;;;;;;;5.20;3.15;;;11.80;58.40;;;10.77;59.20;100044.75;12162229;19;20046;-86
2022/11/04 05:29:34;;;;;;;4.78;3.35;;;11.90;58.50;;;10.73;59.15;100051.13;12162241;19;20021;-85
2022/11/04 05:33:36;;;;;;;6.38;3.08;;;11.90;58.60;;;10.77;59.08;100055.19;12157778;19;20029;-86
2022/11/04 05:37:37;;;;;;;4.90;3.38;;;11.80;58.50;;;10.79;59.25;100058.53;12158305;19;20022;-87
2022/11/04 05:41:39;;;;;;;5.05;3.42;;;11.90;58.80;;;10.47;59.12;100021.50;12169608;19;20425;-87
2022/11/04 05:45:41;;;;;;;6.32;3.30;;;11.90;58.60;;;10.75;59.12;100054.47;12162428;19;20042;-87
2022/11/04 05:49:42;;;;;;;4.68;3.50;;;11.90;58.60;;;10.81;59.22;100077.56;12166824;19;20038;-86
2022/11/04 05:53:44;;;;;;;4.72;3.05;;;11.90;58.60;;;10.81;59.06;100072.34;12158998;19;20497;-87
2022/11/04 05:57:46;;;;;;;2.85;2.65;;;11.90;58.60;;;10.76;59.35;100069.19;12158793;19;20019;-87
2022/11/04 06:01:49;;;;;;;3.72;3.25;;;11.90;58.60;;;10.77;59.22;100082.13;12166075;19;20786;-86
2022/11/04 06:05:50;;;;;;;4.22;3.03;;;11.90;58.60;;;10.73;59.40;100083.28;12163743;19;20026;-86
2022/11/04 06:09:52;;;;;;;3.50;3.20;;;11.90;58.60;;;10.81;59.36;100098.44;12165104;19;20010;-87
2022/11/04 06:13:55;;;;;;;5.38;3.63;;;11.80;58.50;;;10.74;59.29;100097.19;12160484;19;20382;-87
2022/11/04 06:17:56;;;;;;;4.78;3.35;;;12.00;58.60;;;10.78;59.30;100117.78;12156377;19;20019;-87
2022/11/04 06:21:59;;;;;;;5.60;3.30;;;12.00;58.60;;;10.77;59.25;100113.47;12162263;19;20013;-87
2022/11/04 06:26:00;;;;;;;5.03;3.72;;;11.90;58.50;;;10.83;59.53;100122.69;12154819;19;20751;-89
2022/11/04 06:30:03;;;;;;;8.65;3.38;;;12.00;58.60;;;10.77;59.44;100112.63;12170141;19;21118;-89
2022/11/04 06:34:04;;;;;;;7.20;3.85;;;11.90;58.60;;;10.80;59.31;100113.28;12173092;19;20614;-88
2022/11/04 06:38:06;;;;;;;4.53;4.07;;;11.90;58.70;;;10.72;59.54;100099.03;12175077;19;20043;-88
2022/11/04 06:42:07;;;;;;;4.80;4.00;;;11.90;58.70;;;10.73;59.38;100117.25;12171682;19;20472;-87
2022/11/04 06:46:35;;;;;;;5.85;3.85;;;12.00;58.80;;;10.84;59.56;100133.03;12173028;19;20780;-88
2022/11/04 06:50:37;;;;;;;7.15;3.85;;;12.00;58.80;;;10.45;59.46;100066.00;12176019;19;20662;-89
2022/11/04 06:54:38;;;;;;;5.97;3.78;;;12.00;58.90;;;10.79;59.42;100123.81;12171596;19;20109;-92
2022/11/04 06:59:10;;;;;;;;;;;;;;;;;;;;;
2022/11/04 07:03:24;;;;;;;4.35;3.92;;;12.10;59.10;;;10.60;59.58;100085.03;12156591;19;20375;-91
2022/11/04 07:07:28;;;;;;;6.05;4.13;;;12.20;59.20;;;10.44;59.50;100058.25;12162703;19;20026;-89
2022/11/04 07:11:32;;;;;;;5.43;4.13;;;12.10;59.10;;;10.85;59.67;100120.81;12169786;19;20312;-89
2022/11/04 07:15:33;;;;;;;7.18;4.70;;;12.20;59.30;;;10.92;59.46;100121.25;12166316;19;20018;-88
2022/11/04 07:19:35;;;;;;;4.95;4.30;;;12.10;59.40;;;10.98;59.67;100115.63;12151095;19;20383;-88
2022/11/04 07:23:37;;;;;;;4.82;4.32;;;12.00;59.60;;;11.04;59.55;100121.28;12157827;19;20415;-89
2022/11/04 07:27:38;;;;;;;7.35;4.72;;;12.20;59.60;;;11.10;59.66;100134.84;12150885;19;20599;-87
2022/11/04 07:31:40;;;;;;;5.90;3.90;;;12.20;59.60;;;11.06;59.69;100136.84;12151294;19;20107;-87
2022/11/04 07:35:42;;;;;;;4.72;3.30;;;12.30;59.70;;;11.04;59.73;100128.25;12162558;19;20060;-88
2022/11/04 07:39:43;;;;;;;4.00;3.20;;;12.30;59.70;;;11.15;59.88;100151.06;12162477;19;20018;-87
2022/11/04 07:43:53;;;;;;;6.03;4.00;;;12.20;59.60;;;11.13;59.77;100132.88;12167093;19;20062;-88
2022/11/04 07:47:55;;;;;;;4.43;3.38;;;12.10;59.80;;;11.14;59.82;100111.03;12165849;19;20042;-87
2022/11/04 07:51:56;;;;;;;5.55;3.75;;;12.30;59.90;;;11.28;59.97;100134.44;12155958;19;20641;-87
2022/11/04 07:56:02;;;;;;;4.50;3.42;;;12.40;60.00;;;11.21;59.95;100125.38;12159846;19;20017;-87
2022/11/04 08:00:06;;;;;;;4.60;3.50;;;12.40;60.00;;;11.22;59.98;100113.97;12158719;19;20631;-88
2022/11/04 08:04:14;;;;;;;5.07;3.95;;;12.40;59.90;;;11.34;59.91;100130.59;12155758;19;20014;-87
2022/11/04 08:08:16;;;;;;;4.30;3.72;;;12.50;60.00;;;11.35;60.05;100116.59;12155180;19;20023;-87
2022/11/04 08:12:19;;;;;;;6.00;4.90;;;12.60;60.20;;;11.45;60.09;100122.00;12157714;19;20931;-87
2022/11/04 08:16:24;;;;;;;8.98;4.93;;;12.60;60.50;;;11.49;60.20;100116.47;12155589;19;20022;-88
2022/11/04 08:20:25;;;;;;;6.73;5.13;;;12.60;60.40;;;11.58;60.23;100115.00;12164514;19;20349;-88
2022/11/04 08:24:27;;;;;;;5.80;4.95;;;12.70;60.80;;;11.29;60.27;100072.56;12159584;19;20021;-87
2022/11/04 08:28:28;;;;;;;4.95;4.35;;;12.80;61.30;;;11.73;60.54;100137.47;12149768;19;20314;-87
2022/11/04 08:32:30;;;;;;;8.75;4.95;;;12.80;62.10;;;11.64;60.48;100106.75;12150097;19;20039;-87
2022/11/04 08:36:35;;;;;;;8.65;5.18;;;13.00;61.80;;;11.87;60.49;100126.06;12155775;19;20010;-87
2022/11/04 08:40:37;;;;;;;6.82;5.25;;;13.00;62.00;;;11.95;60.46;100121.13;12162883;19;20018;-86
2022/11/04 08:44:38;;;;;;;9.95;5.03;;;13.10;62.20;;;11.95;60.75;100122.91;12150720;19;20283;-87
2022/11/04 08:48:41;;;;;;;7.00;4.78;;;13.20;62.20;;;11.86;60.55;100103.47;12186469;19;20023;-88
2022/11/04 08:52:42;;;;;;;6.72;5.25;;;13.10;62.30;;;12.20;60.73;100153.41;12155274;19;20015;-88
2022/11/04 08:56:44;;;;;;;6.20;4.78;;;13.40;62.40;;;12.13;60.66;100131.25;12176803;19;20030;-88
2022/11/04 09:00:46;;;;;;;5.70;4.70;;;13.50;62.50;;;12.32;60.76;100143.88;12160097;19;20506;-87
2022/11/04 09:04:47;;;;;;;6.70;4.93;;;13.60;62.50;;;12.42;60.81;100152.72;12143698;19;20480;-88
2022/11/04 09:08:50;;;;;;;7.55;5.10;;;13.60;62.40;;;12.48;60.90;100149.66;12173044;19;20571;-87
2022/11/04 09:12:51;;;;;;;6.47;5.40;;;13.70;62.60;;;12.55;60.89;100140.41;12170899;19;20046;-89
2022/11/04 09:16:55;;;;;;;5.47;4.45;;;13.70;62.60;;;12.63;60.96;100131.97;12171759;19;20022;-88
2022/11/04 09:21:06;;;;;;;7.15;4.95;;;13.80;62.70;;;12.65;60.96;100119.63;12142957;19;20026;-88
2022/11/04 09:25:08;;;;;;;5.28;4.70;;;13.90;63.10;;;12.77;60.97;100128.34;12146529;19;20022;-88
2022/11/04 09:29:10;;;;;;;5.55;4.45;;;14.00;63.10;;;12.87;61.08;100133.75;12153531;19;20378;-88
2022/11/04 09:33:12;;;;;;;6.43;5.05;;;14.00;63.00;;;12.65;61.15;100075.09;12147400;19;20054;-88
2022/11/04 09:37:14;;;;;;;5.70;5.07;;;14.10;63.00;;;13.05;61.12;100119.28;12157511;19;20030;-88
2022/11/04 09:41:47;;;;;;;5.97;5.15;;;14.40;63.30;;;13.09;61.09;100107.59;12164786;19;20791;-88
2022/11/04 09:45:49;;;;;;;4.38;3.67;;;14.30;63.40;;;13.16;61.13;100100.94;12170804;19;20387;-88
2022/11/04 09:49:56;;;;;;;5.60;4.25;;;14.40;63.20;;;13.22;61.18;100099.66;12170679;19;20019;-88
2022/11/04 09:54:06;;;;;;;6.10;4.32;;;14.40;63.40;;;13.37;61.26;100106.38;12168701;19;20019;-88
2022/11/04 09:58:12;;;;;;;4.80;3.92;;;14.50;63.60;;;13.33;61.17;100106.72;12163452;19;20877;-88
2022/11/04 10:02:43;;;;;;;4.38;3.97;;;14.50;63.50;;;13.47;61.31;100140.59;12169378;19;20779;-88
2022/11/04 10:07:19;;;;;;;4.15;3.75;;;14.70;63.20;;;13.45;61.19;100150.38;12158175;19;20019;-88
2022/11/04 10:11:59;;;;;;;5.30;3.80;;;14.70;62.90;;;13.54;61.18;100172.44;12163689;19;20330;-88
2022/11/04 10:16:44;;;;;;;3.75;3.22;;;14.80;62.60;;;13.67;61.23;100188.91;12162234;19;20475;-87
2022/11/04 10:20:58;;;;;;;4.70;3.17;;;14.80;62.40;;;13.72;61.22;100192.84;12163538;19;20327;-88
2022/11/04 10:25:27;;;;;;;3.80;3.40;;;14.90;62.30;;;13.66;61.27;100177.59;12161137;19;20884;-88
2022/11/04 10:29:45;;;;;;;4.32;2.80;;;14.90;62.20;;;13.67;61.30;100160.88;12164218;19;20385;-88
2022/11/04 10:34:22;;;;;;;3.60;3.10;;;15.00;62.10;;;13.82;61.35;100192.13;12150885;19;20029;-86
2022/11/04 10:38:54;;;;;;;3.42;3.13;;;14.80;61.80;;;13.86;61.25;100201.47;12143188;19;20585;-87
2022/11/04 10:42:59;;;;;;;3.78;3.38;;;15.00;61.70;;;13.71;61.12;100171.97;12142752;19;20046;-87
2022/11/04 10:48:00;;;;;;;4.50;4.10;;;15.10;61.70;;;13.91;61.26;100191.44;12141808;19;20018;-86
2022/11/04 10:52:02;;;;;;;14.18;8.45;;;15.10;61.70;;;13.87;61.46;100184.75;12141771;19;20487;-86
2022/11/04 10:56:08;;;;;;;8.30;6.32;;;15.10;61.60;;;13.99;61.19;100206.56;12149018;19;20022;-87
2022/11/04 11:00:39;;;;;;;6.22;4.43;;;15.00;61.40;;;13.99;61.26;100212.69;12147805;19;20018;-86
2022/11/04 11:04:43;;;;;;;9.13;6.75;;;15.10;61.60;;;14.01;61.15;100202.03;12143105;19;20373;-86
2022/11/04 11:08:46;;;;;;;8.10;5.60;;;15.10;61.30;;;14.10;61.35;100212.66;12144888;19;20019;-85
2022/11/04 11:13:01;;;;;;;4.32;3.85;;;15.20;61.40;;;14.11;61.16;100222.22;12142717;19;20075;-87
2022/11/04 11:17:35;;;;;;;18.38;13.85;;;15.20;61.50;;;14.08;61.08;100216.38;12143076;19;20458;-85
2022/11/04 11:21:50;;;;;;;13.75;11.18;;;15.20;61.50;;;13.95;61.03;100205.97;12130089;19;21179;-85
2022/11/04 11:25:52;;;;;;;7.65;5.80;;;15.10;61.30;;;14.10;61.22;100223.19;12148674;19;20119;-85
2022/11/04 11:29:55;;;;;;;5.68;5.03;;;15.20;61.20;;;14.10;60.91;100224.97;12149831;19;20018;-86
2022/11/04 11:34:02;;;;;;;10.05;6.60;;;15.30;61.00;;;14.09;61.06;100226.72;12146095;19;20018;-85
2022/11/04 11:38:04;;;;;;;7.57;6.13;;;15.30;61.10;;;14.23;61.22;100245.84;12144696;19;20378;-85
2022/11/04 11:42:15;;;;;;;5.90;4.90;;;15.50;61.10;;;14.20;61.16;100239.03;12146309;19;21126;-86
2022/11/04 11:46:23;;;;;;;8.15;6.35;;;15.30;60.60;;;14.24;61.15;100240.47;12152072;19;20019;-87
2022/11/04 11:50:33;;;;;;;5.72;5.13;;;15.40;60.80;;;14.19;61.00;100233.91;12151372;19;20019;-86
2022/11/04 11:54:38;;;;;;;3.80;3.47;;;15.30;60.70;;;14.28;61.04;100254.19;12152847;19;20017;-88
2022/11/04 11:59:17;;;;;;;3.85;3.45;;;15.20;60.60;;;14.27;61.18;100249.91;12149820;19;20014;-87
2022/11/04 12:03:31;;;;;;;6.13;3.15;;;15.40;60.80;;;14.30;61.14;100249.66;12156578;19;20381;-86
2022/11/04 12:08:24;;;;;;;5.88;3.80;;;15.40;60.90;;;14.25;61.16;100247.38;12153771;19;20037;-88
2022/11/04 12:13:04;;;;;;;3.83;3.45;;;15.40;61.10;;;14.24;61.00;100256.22;12145679;19;20369;-87
2022/11/04 12:17:24;;;;;;;3.78;3.47;;;15.40;60.90;;;14.20;60.94;100252.16;12156366;19;20279;-88
2022/11/04 12:21:33;;;;;;;4.53;3.53;;;15.30;60.70;;;14.16;60.96;100235.81;12151930;19;20599;-87
2022/11/04 12:26:23;;;;;;;3.50;3.17;;;15.30;60.80;;;14.15;61.12;100252.53;12158315;19;21492;-88
2022/11/04 12:30:27;;;;;;;3.15;2.92;;;15.30;60.70;;;13.97;61.03;100219.81;12157483;19;20014;-88
2022/11/04 12:34:55;;;;;;;4.65;3.13;;;15.30;60.50;;;14.20;60.97;100253.94;12151252;19;20022;-87
2022/11/04 12:39:18;;;;;;;3.45;3.15;;;15.30;60.70;;;14.19;60.95;100242.63;12151543;19;20018;-86
2022/11/04 12:43:27;;;;;;;3.22;2.85;;;15.30;60.70;;;14.24;61.02;100255.41;12153423;19;20033;-88
2022/11/04 12:47:41;;;;;;;3.22;2.92;;;15.20;60.50;;;13.98;60.95;100204.91;12137601;19;20010;-88
2022/11/04 12:51:54;;;;;;;3.28;2.90;;;15.20;61.30;;;13.98;60.91;100208.38;12144618;19;20019;-87
2022/11/04 12:56:03;;;;;;;3.38;3.08;;;15.20;60.70;;;14.25;60.98;100254.44;12142094;19;20015;-87
2022/11/04 13:00:17;;;;;;;3.22;2.92;;;15.20;60.60;;;14.16;60.97;100240.25;12150665;19;20046;-87
2022/11/04 13:04:27;;;;;;;3.90;3.53;;;15.30;60.80;;;14.23;61.07;100248.47;12148271;19;20022;-87
2022/11/04 13:08:51;;;;;;;5.30;3.60;;;15.30;60.80;;;14.20;61.12;100251.31;12150099;19;20034;-87
2022/11/04 13:12:56;;;;;;;4.07;3.70;;;15.30;60.90;;;14.13;61.02;100241.31;12153110;19;20719;-87
2022/11/04 13:17:05;;;;;;;5.47;3.88;;;15.30;60.80;;;14.19;61.11;100252.28;12148669;19;20591;-88
2022/11/04 13:21:15;;;;;;;4.45;3.83;;;15.30;60.80;;;14.17;60.99;100255.84;12166322;19;20029;-87
2022/11/04 13:25:40;;;;;;;4.53;3.75;;;15.30;60.80;;;14.00;61.06;100232.72;12144221;19;20011;-87
2022/11/04 13:29:42;;;;;;;5.53;4.00;;;15.10;60.80;;;14.19;61.35;100268.88;12155049;19;20011;-87
2022/11/04 13:34:31;;;;;;;6.30;4.20;;;15.30;60.80;;;14.17;61.13;100271.63;12148427;19;20452;-87
2022/11/04 13:38:44;;;;;;;5.43;4.40;;;15.20;60.80;;;14.03;61.09;100247.41;12151237;19;20018;-87
2022/11/04 13:47:59;;;;;;;5.75;5.18;;;15.30;60.90;;;14.04;60.83;100254.31;12153193;19;20015;-87
2022/11/04 13:52:07;;;;;;;6.28;5.53;;;15.20;60.80;;;14.15;60.97;100268.28;12162644;19;20070;-87
2022/11/04 13:56:24;;;;;;;5.30;4.80;;;15.20;60.70;;;14.14;61.04;100261.34;12079857;19;20015;-87
2022/11/04 14:00:27;;;;;;;4.93;4.05;;;15.20;60.80;;;14.17;61.21;100263.72;12157318;19;20359;-87
2022/11/04 14:04:31;;;;;;;4.55;4.13;;;15.10;60.80;;;14.17;61.03;100249.78;12162598;19;20371;-90
2022/11/04 14:08:33;;;;;;;4.50;3.97;;;15.40;61.20;;;14.10;61.14;100244.19;12158832;19;20485;-87
2022/11/04 14:12:35;;;;;;;3.80;3.50;;;15.20;61.00;;;14.13;61.03;100248.34;12164689;19;20051;-88
2022/11/04 14:16:39;;;;;;;4.68;4.28;;;15.20;61.00;;;14.16;61.15;100259.44;12160637;19;20018;-86
2022/11/04 14:21:14;;;;;;;4.70;4.07;;;15.10;61.00;;;14.15;61.06;100263.03;12154222;19;20280;-87
2022/11/04 14:25:40;;;;;;;5.05;4.20;;;15.20;61.50;;;14.08;61.25;100261.00;12161031;19;20850;-87
2022/11/04 14:29:50;;;;;;;4.20;3.83;;;15.20;61.30;;;14.06;61.22;100268.16;12144865;19;21142;-86
2022/11/04 14:33:56;;;;;;;4.35;4.05;;;15.10;61.30;;;14.10;61.04;100282.72;12155617;19;20042;-87
2022/11/04 14:38:25;;;;;;;4.15;3.78;;;15.10;61.30;;;14.12;61.06;100305.28;12157210;19;20041;-87
2022/11/04 14:42:49;;;;;;;4.63;3.85;;;15.10;61.20;;;14.06;61.18;100300.50;12119353;19;20617;-87
2022/11/04 14:46:56;;;;;;;5.35;4.30;;;15.10;61.30;;;14.17;61.24;100329.38;12160140;19;20010;-86
2022/11/04 14:51:40;;;;;;;5.03;4.60;;;15.10;61.20;;;14.07;61.18;100293.44;12147307;19;20295;-87
2022/11/04 14:56:22;;;;;;;4.45;4.05;;;15.20;61.30;;;14.10;61.15;100291.44;12121128;19;21111;-87
2022/11/04 15:00:37;;;;;;;5.30;4.80;;;15.20;61.30;;;14.14;61.09;100284.16;12146357;19;20093;-89
2022/11/04 15:04:51;;;;;;;5.43;4.88;;;15.20;61.30;;;14.12;61.17;100289.53;12153331;19;20302;-88
2022/11/04 15:08:54;;;;;;;5.20;4.80;;;15.40;61.50;;;13.82;61.17;100231.50;12152322;19;20022;-88
2022/11/04 15:13:01;;;;;;;5.15;4.65;;;15.20;61.30;;;14.03;61.09;100273.66;12148848;19;20036;-89
2022/11/04 15:17:03;;;;;;;5.15;4.60;;;15.40;61.50;;;14.13;61.22;100293.00;12146667;19;20021;-89
2022/11/04 15:21:08;;;;;;;5.28;4.78;;;15.40;61.40;;;14.13;61.30;100306.97;12147417;19;20022;-89
2022/11/04 15:25:11;;;;;;;4.88;4.43;;;15.10;61.10;;;13.77;61.23;100252.00;12156066;19;20026;-88
2022/11/04 15:29:16;;;;;;;;;;;15.10;61.10;;;14.07;61.13;100317.94;12149313;19;20622;-89
2022/11/04 15:33:36;;;;;;;4.95;4.55;;;15.10;60.60;;;14.03;61.25;100320.91;12147631;19;19926;-89
2022/11/04 15:37:48;;;;;;;4.95;4.53;;;15.10;60.80;;;14.03;61.16;100310.41;12152866;19;21551;-89
2022/11/04 15:46:18;;;;;;;5.78;5.13;;;15.00;61.10;;;14.00;61.06;100315.88;12126924;19;20022;-89
2022/11/04 15:50:24;;;;;;;22.98;15.90;;;15.00;61.10;;;13.73;61.25;100282.91;12152618;19;20117;-89
2022/11/04 15:54:36;;;;;;;24.90;15.38;;;15.00;61.30;;;13.90;61.22;100311.31;12152718;19;20345;-89
2022/11/04 15:58:44;;;;;;;11.68;9.50;;;14.90;61.30;;;13.99;61.32;100320.31;12154887;19;20410;-89
2022/11/04 16:03:46;;;;;;;8.25;6.60;;;14.90;61.30;;;13.95;61.23;100335.44;12149606;19;20024;-88
2022/11/04 16:07:51;;;;;;;8.27;7.25;;;14.90;61.40;;;13.80;61.20;100313.00;12149770;19;20049;-89
2022/11/04 16:12:13;;;;;;;8.40;7.22;;;14.90;61.30;;;13.88;61.31;100334.25;12148041;19;20014;-88
2022/11/04 16:16:20;;;;;;;8.60;6.63;;;14.90;61.40;;;13.81;61.05;100321.69;12145969;19;20019;-89
2022/11/04 16:20:22;;;;;;;7.85;6.35;;;14.90;61.20;;;13.79;61.23;100319.19;12153342;19;20615;-89
2022/11/04 16:24:29;;;;;;;6.25;5.60;;;15.20;61.60;;;13.81;61.30;100329.56;12151407;19;20960;-89
2022/11/04 16:28:36;;;;;;;9.80;7.53;;;14.90;61.30;;;13.82;61.22;100344.34;12146078;19;20025;-88
2022/11/04 16:32:53;;;;;;;14.70;9.40;;;14.90;61.40;;;13.78;61.25;100348.19;12159438;19;20018;-89
2022/11/04 16:36:57;;;;;;;15.82;10.55;;;14.90;61.30;;;13.74;61.30;100337.06;12149747;19;20038;-90
2022/11/04 16:40:59;;;;;;;12.70;9.73;;;14.80;61.30;;;13.84;61.24;100361.66;12151582;19;20578;-88
2022/11/04 16:45:03;;;;;;;11.63;9.55;;;14.90;61.20;;;13.83;61.34;100361.78;12149620;19;20410;-88
2022/11/04 16:49:05;;;;;;;10.20;8.25;;;14.80;61.20;;;13.76;61.27;100350.06;12152723;19;20854;-88
2022/11/04 16:53:07;;;;;;;22.05;14.50;;;14.80;61.20;;;13.61;61.40;100337.16;12151533;19;20057;-89
2022/11/04 16:57:13;;;;;;;18.73;12.95;;;14.90;61.20;;;13.70;61.28;100361.88;12144569;19;20022;-89
2022/11/04 17:01:15;;;;;;;19.92;12.68;;;14.80;61.20;;;13.78;61.35;100384.91;12160733;19;20042;-89
2022/11/04 17:05:17;;;;;;;25.50;16.17;;;14.80;61.20;;;13.84;61.31;100395.78;12156909;19;20050;-87
2022/11/04 17:09:21;;;;;;;25.40;13.63;;;14.70;61.20;;;13.75;61.30;100395.66;12164723;19;20092;-89
2022/11/04 17:13:23;;;;;;;29.90;14.43;;;14.80;62.00;;;13.84;61.45;100405.44;12177023;19;20014;-88
2022/11/04 17:17:25;;;;;;;25.50;14.40;;;15.00;61.40;;;13.75;61.37;100395.66;12170133;19;20378;-89
2022/11/04 17:21:27;;;;;;;23.30;13.07;;;14.80;61.30;;;13.70;61.22;100391.56;12174827;19;20557;-89
2022/11/04 17:25:29;;;;;;;14.70;9.20;;;14.80;61.30;;;13.76;61.42;100405.19;12174620;19;20018;-88
2022/11/04 17:29:31;;;;;;;13.35;8.90;;;14.80;61.30;;;13.65;61.33;100391.06;12173531;19;20942;-89
2022/11/04 17:33:33;;;;;;;11.93;9.23;;;15.00;61.40;;;13.77;61.45;100414.72;12173789;19;20394;-87
2022/11/04 17:37:34;;;;;;;17.85;11.60;;;15.00;61.40;;;13.61;61.43;100400.13;12169890;19;20038;-89
2022/11/04 17:46:32;;;;;;;11.68;6.50;;;14.70;61.30;;;13.68;61.37;100417.06;12181639;19;20018;-88
2022/11/04 17:50:18;;;;;;;6.10;5.57;;;14.70;61.30;;;13.75;61.46;100427.97;12167690;19;20026;-88